TVSA

Argyle Airport

Argyle, Saint Vincent and the Grenadines
TAF TVSA 211100Z 2112/2212 08014KT 9999 SCT018 PROB30 TEMPO 2113/2116 BKN015
Issued Valid From Valid To
Jan-21 @ 11:00 UTC
(6 hours ago)
Jan-21 @ 12:00 UTC
(5 hours ago)
Jan-22 @ 12:00 UTC
(in 19 hours)
Jan-21 @ 12:00 to Jan-22 @ 12:00
TAF TVSA 211100Z 2112/2212 08014KT 9999 SCT018
Wind Visibility Clouds
80° at 14 knots 10,000+ meters
  • Scattered at 1,800' AGL
Expired Click to View Jan-21 @ 13:00 to Jan-21 @ 16:00
PROB30 TEMPO 2113/2116 BKN015
Clouds
  • Broken at 1,500' AGL
TAF TVSA 211100Z 2112/2212 08014KT 9999 SCT018 PROB30 TEMPO 2113/2116 BKN015
Issued Jan-21 @ 11:00 UTC
(6 hours ago)
Valid From Jan-21 @ 12:00 UTC
(5 hours ago)
Valid To Jan-22 @ 12:00 UTC
(in 19 hours)
Jan-21 @ 12:00 - Jan-22 @ 12:00
Wind Visibility
80° at 14 knots 10,000+ meters
Clouds
  • Scattered at 1,800' AGL
Jan-21 @ 13:00 - Jan-21 @ 16:00
Clouds
  • Broken at 1,500' AGL